sensor_id;sensor_type;location;lat;lon;timestamp;temperature;humidity
78522;SHT31;67819;51.972;5.678;2023-12-20T00:00:20;8.0;81.6
78522;SHT31;67819;51.972;5.678;2023-12-20T00:02:49;8.0;81.6
78522;SHT31;67819;51.972;5.678;2023-12-20T00:05:18;8.0;81.6
78522;SHT31;67819;51.972;5.678;2023-12-20T00:07:46;8.0;81.8
78522;SHT31;67819;51.972;5.678;2023-12-20T00:10:15;8.0;81.9
78522;SHT31;67819;51.972;5.678;2023-12-20T00:12:43;8.0;81.9
78522;SHT31;67819;51.972;5.678;2023-12-20T00:15:12;8.0;81.8
78522;SHT31;67819;51.972;5.678;2023-12-20T00:17:40;8.0;81.5
78522;SHT31;67819;51.972;5.678;2023-12-20T00:20:10;8.0;81.2
78522;SHT31;67819;51.972;5.678;2023-12-20T00:22:38;8.0;81.0
78522;SHT31;67819;51.972;5.678;2023-12-20T00:25:07;8.0;80.9
78522;SHT31;67819;51.972;5.678;2023-12-20T00:27:36;8.0;80.9
78522;SHT31;67819;51.972;5.678;2023-12-20T00:30:08;8.0;80.8
78522;SHT31;67819;51.972;5.678;2023-12-20T00:32:37;8.0;80.5
78522;SHT31;67819;51.972;5.678;2023-12-20T00:35:06;8.0;80.5
78522;SHT31;67819;51.972;5.678;2023-12-20T00:37:34;8.0;80.4
78522;SHT31;67819;51.972;5.678;2023-12-20T00:40:03;8.0;80.4
78522;SHT31;67819;51.972;5.678;2023-12-20T00:42:33;8.0;80.2
78522;SHT31;67819;51.972;5.678;2023-12-20T00:45:05;7.9;80.2
78522;SHT31;67819;51.972;5.678;2023-12-20T00:47:34;7.9;80.2
78522;SHT31;67819;51.972;5.678;2023-12-20T00:50:05;7.9;80.3
78522;SHT31;67819;51.972;5.678;2023-12-20T00:52:34;7.9;80.3
78522;SHT31;67819;51.972;5.678;2023-12-20T00:55:03;7.9;80.3
78522;SHT31;67819;51.972;5.678;2023-12-20T00:57:32;7.9;80.2
78522;SHT31;67819;51.972;5.678;2023-12-20T01:00:01;7.9;80.2
78522;SHT31;67819;51.972;5.678;2023-12-20T01:02:32;7.9;80.1
78522;SHT31;67819;51.972;5.678;2023-12-20T01:05:00;7.9;80.0
78522;SHT31;67819;51.972;5.678;2023-12-20T01:07:29;7.9;80.0
78522;SHT31;67819;51.972;5.678;2023-12-20T01:09:57;7.8;80.2
78522;SHT31;67819;51.972;5.678;2023-12-20T01:12:26;7.8;80.0
78522;SHT31;67819;51.972;5.678;2023-12-20T01:14:55;7.8;79.9
78522;SHT31;67819;51.972;5.678;2023-12-20T01:17:25;7.8;79.8
78522;SHT31;67819;51.972;5.678;2023-12-20T01:19:53;7.8;79.8
78522;SHT31;67819;51.972;5.678;2023-12-20T01:22:22;7.8;79.7
78522;SHT31;67819;51.972;5.678;2023-12-20T01:24:50;7.8;79.6
78522;SHT31;67819;51.972;5.678;2023-12-20T01:27:19;7.8;79.5
78522;SHT31;67819;51.972;5.678;2023-12-20T01:29:48;7.8;79.4
78522;SHT31;67819;51.972;5.678;2023-12-20T01:32:16;7.8;79.4
78522;SHT31;67819;51.972;5.678;2023-12-20T01:34:45;7.8;79.3
78522;SHT31;67819;51.972;5.678;2023-12-20T01:37:14;7.7;79.4
78522;SHT31;67819;51.972;5.678;2023-12-20T01:39:43;7.7;79.4
78522;SHT31;67819;51.972;5.678;2023-12-20T01:42:12;7.7;79.4
78522;SHT31;67819;51.972;5.678;2023-12-20T01:44:40;7.7;79.4
78522;SHT31;67819;51.972;5.678;2023-12-20T01:47:09;7.7;79.3
78522;SHT31;67819;51.972;5.678;2023-12-20T01:49:38;7.7;79.4
78522;SHT31;67819;51.972;5.678;2023-12-20T01:52:08;7.7;79.4
78522;SHT31;67819;51.972;5.678;2023-12-20T01:54:37;7.7;79.4
78522;SHT31;67819;51.972;5.678;2023-12-20T01:57:08;7.7;79.5
78522;SHT31;67819;51.972;5.678;2023-12-20T01:59:39;7.7;79.6
78522;SHT31;67819;51.972;5.678;2023-12-20T02:02:08;7.7;79.7
78522;SHT31;67819;51.972;5.678;2023-12-20T02:04:39;7.7;79.8
78522;SHT31;67819;51.972;5.678;2023-12-20T02:07:08;7.8;79.8
78522;SHT31;67819;51.972;5.678;2023-12-20T02:09:38;7.8;79.9
78522;SHT31;67819;51.972;5.678;2023-12-20T02:12:08;7.8;79.8
78522;SHT31;67819;51.972;5.678;2023-12-20T02:14:36;7.9;79.6
78522;SHT31;67819;51.972;5.678;2023-12-20T02:17:05;7.9;79.3
78522;SHT31;67819;51.972;5.678;2023-12-20T02:19:34;8.0;79.1
78522;SHT31;67819;51.972;5.678;2023-12-20T02:22:09;8.0;79.1
78522;SHT31;67819;51.972;5.678;2023-12-20T02:24:38;8.0;78.7
78522;SHT31;67819;51.972;5.678;2023-12-20T02:27:10;8.1;78.9
78522;SHT31;67819;51.972;5.678;2023-12-20T02:29:38;8.1;78.7
78522;SHT31;67819;51.972;5.678;2023-12-20T02:32:07;8.1;78.8
78522;SHT31;67819;51.972;5.678;2023-12-20T02:34:36;8.2;78.4
78522;SHT31;67819;51.972;5.678;2023-12-20T02:37:05;8.2;78.4
78522;SHT31;67819;51.972;5.678;2023-12-20T02:39:35;8.2;78.2
78522;SHT31;67819;51.972;5.678;2023-12-20T02:42:04;8.3;78.3
78522;SHT31;67819;51.972;5.678;2023-12-20T02:44:32;8.3;78.4
78522;SHT31;67819;51.972;5.678;2023-12-20T02:47:01;8.3;78.4
78522;SHT31;67819;51.972;5.678;2023-12-20T02:49:30;8.4;78.1
78522;SHT31;67819;51.972;5.678;2023-12-20T02:51:59;8.4;77.9
78522;SHT31;67819;51.972;5.678;2023-12-20T02:54:27;8.4;77.6
78522;SHT31;67819;51.972;5.678;2023-12-20T02:56:58;8.5;77.1
78522;SHT31;67819;51.972;5.678;2023-12-20T02:59:26;8.5;76.9
78522;SHT31;67819;51.972;5.678;2023-12-20T03:01:55;8.5;76.8
78522;SHT31;67819;51.972;5.678;2023-12-20T03:04:23;8.4;76.8
78522;SHT31;67819;51.972;5.678;2023-12-20T03:06:52;8.4;76.9
78522;SHT31;67819;51.972;5.678;2023-12-20T03:09:21;8.4;76.8
78522;SHT31;67819;51.972;5.678;2023-12-20T03:11:49;8.4;76.9
78522;SHT31;67819;51.972;5.678;2023-12-20T03:14:18;8.3;77.0
78522;SHT31;67819;51.972;5.678;2023-12-20T03:16:49;8.3;77.1
78522;SHT31;67819;51.972;5.678;2023-12-20T03:19:18;8.3;77.4
78522;SHT31;67819;51.972;5.678;2023-12-20T03:21:47;8.3;77.6
78522;SHT31;67819;51.972;5.678;2023-12-20T03:24:15;8.3;77.6
78522;SHT31;67819;51.972;5.678;2023-12-20T03:26:44;8.3;77.5
78522;SHT31;67819;51.972;5.678;2023-12-20T03:29:13;8.2;77.7
78522;SHT31;67819;51.972;5.678;2023-12-20T03:31:41;8.2;77.8
78522;SHT31;67819;51.972;5.678;2023-12-20T03:34:10;8.2;77.9
78522;SHT31;67819;51.972;5.678;2023-12-20T03:36:38;8.2;78.0
78522;SHT31;67819;51.972;5.678;2023-12-20T03:39:07;8.2;77.9
78522;SHT31;67819;51.972;5.678;2023-12-20T03:41:36;8.2;77.8
78522;SHT31;67819;51.972;5.678;2023-12-20T03:44:05;8.2;78.0
78522;SHT31;67819;51.972;5.678;2023-12-20T03:46:33;8.2;78.1
78522;SHT31;67819;51.972;5.678;2023-12-20T03:49:02;8.2;78.1
78522;SHT31;67819;51.972;5.678;2023-12-20T03:51:30;8.2;77.9
78522;SHT31;67819;51.972;5.678;2023-12-20T03:53:59;8.2;77.7
78522;SHT31;67819;51.972;5.678;2023-12-20T03:56:27;8.2;77.9
78522;SHT31;67819;51.972;5.678;2023-12-20T03:58:56;8.2;78.0
78522;SHT31;67819;51.972;5.678;2023-12-20T04:01:25;8.3;77.9
78522;SHT31;67819;51.972;5.678;2023-12-20T04:03:53;8.3;77.7
78522;SHT31;67819;51.972;5.678;2023-12-20T04:06:24;8.3;77.7
78522;SHT31;67819;51.972;5.678;2023-12-20T04:08:52;8.3;77.4
78522;SHT31;67819;51.972;5.678;2023-12-20T04:11:21;8.3;77.6
78522;SHT31;67819;51.972;5.678;2023-12-20T04:13:50;8.3;77.6
78522;SHT31;67819;51.972;5.678;2023-12-20T04:16:18;8.4;77.6
78522;SHT31;67819;51.972;5.678;2023-12-20T04:18:47;8.4;77.4
78522;SHT31;67819;51.972;5.678;2023-12-20T04:21:16;8.4;77.2
78522;SHT31;67819;51.972;5.678;2023-12-20T04:23:44;8.4;77.1
78522;SHT31;67819;51.972;5.678;2023-12-20T04:26:15;8.4;77.2
78522;SHT31;67819;51.972;5.678;2023-12-20T04:28:43;8.4;77.1
78522;SHT31;67819;51.972;5.678;2023-12-20T04:31:12;8.4;77.3
78522;SHT31;67819;51.972;5.678;2023-12-20T04:33:41;8.4;77.5
78522;SHT31;67819;51.972;5.678;2023-12-20T04:36:09;8.5;77.6
78522;SHT31;67819;51.972;5.678;2023-12-20T04:38:38;8.5;77.3
78522;SHT31;67819;51.972;5.678;2023-12-20T04:41:07;8.5;77.2
78522;SHT31;67819;51.972;5.678;2023-12-20T04:43:37;8.6;77.0
78522;SHT31;67819;51.972;5.678;2023-12-20T04:46:06;8.6;77.1
78522;SHT31;67819;51.972;5.678;2023-12-20T04:48:34;8.6;76.9
78522;SHT31;67819;51.972;5.678;2023-12-20T04:51:03;8.6;76.9
78522;SHT31;67819;51.972;5.678;2023-12-20T04:53:32;8.7;76.8
78522;SHT31;67819;51.972;5.678;2023-12-20T04:56:01;8.7;76.6
78522;SHT31;67819;51.972;5.678;2023-12-20T04:58:29;8.7;76.7
78522;SHT31;67819;51.972;5.678;2023-12-20T05:00:58;8.8;76.4
78522;SHT31;67819;51.972;5.678;2023-12-20T05:03:27;8.8;76.1
78522;SHT31;67819;51.972;5.678;2023-12-20T05:05:56;8.8;75.9
78522;SHT31;67819;51.972;5.678;2023-12-20T05:08:24;8.8;75.9
78522;SHT31;67819;51.972;5.678;2023-12-20T05:10:54;8.9;75.7
78522;SHT31;67819;51.972;5.678;2023-12-20T05:13:22;8.9;75.6
78522;SHT31;67819;51.972;5.678;2023-12-20T05:15:51;8.9;75.3
78522;SHT31;67819;51.972;5.678;2023-12-20T05:18:20;8.9;75.2
78522;SHT31;67819;51.972;5.678;2023-12-20T05:20:49;8.9;75.1
78522;SHT31;67819;51.972;5.678;2023-12-20T05:23:18;8.9;75.0
78522;SHT31;67819;51.972;5.678;2023-12-20T05:25:47;9.0;74.9
78522;SHT31;67819;51.972;5.678;2023-12-20T05:28:16;9.0;74.8
78522;SHT31;67819;51.972;5.678;2023-12-20T05:30:44;9.0;74.8
78522;SHT31;67819;51.972;5.678;2023-12-20T05:33:13;9.0;74.6
78522;SHT31;67819;51.972;5.678;2023-12-20T05:35:41;9.0;74.6
78522;SHT31;67819;51.972;5.678;2023-12-20T05:38:10;9.0;74.5
78522;SHT31;67819;51.972;5.678;2023-12-20T05:40:39;9.1;74.4
78522;SHT31;67819;51.972;5.678;2023-12-20T05:43:07;9.1;74.5
78522;SHT31;67819;51.972;5.678;2023-12-20T05:45:36;9.1;74.3
78522;SHT31;67819;51.972;5.678;2023-12-20T05:48:05;9.1;74.1
78522;SHT31;67819;51.972;5.678;2023-12-20T05:50:34;9.1;74.3
78522;SHT31;67819;51.972;5.678;2023-12-20T05:53:03;9.1;74.0
78522;SHT31;67819;51.972;5.678;2023-12-20T05:55:32;9.1;74.2
78522;SHT31;67819;51.972;5.678;2023-12-20T05:58:01;9.1;73.9
78522;SHT31;67819;51.972;5.678;2023-12-20T06:00:29;9.1;73.9
78522;SHT31;67819;51.972;5.678;2023-12-20T06:03:00;9.1;74.1
78522;SHT31;67819;51.972;5.678;2023-12-20T06:05:29;9.1;73.8
78522;SHT31;67819;51.972;5.678;2023-12-20T06:07:57;9.1;73.8
78522;SHT31;67819;51.972;5.678;2023-12-20T06:10:29;9.1;74.0
78522;SHT31;67819;51.972;5.678;2023-12-20T06:12:59;9.1;74.0
78522;SHT31;67819;51.972;5.678;2023-12-20T06:15:30;9.1;74.0
78522;SHT31;67819;51.972;5.678;2023-12-20T06:17:59;9.1;74.1
78522;SHT31;67819;51.972;5.678;2023-12-20T06:20:28;9.1;74.1
78522;SHT31;67819;51.972;5.678;2023-12-20T06:22:57;9.1;74.1
78522;SHT31;67819;51.972;5.678;2023-12-20T06:25:25;9.1;73.8
78522;SHT31;67819;51.972;5.678;2023-12-20T06:27:54;9.1;73.9
78522;SHT31;67819;51.972;5.678;2023-12-20T06:30:25;9.1;74.1
78522;SHT31;67819;51.972;5.678;2023-12-20T06:32:54;9.1;73.9
78522;SHT31;67819;51.972;5.678;2023-12-20T06:35:24;9.1;73.8
78522;SHT31;67819;51.972;5.678;2023-12-20T06:37:53;9.1;73.7
78522;SHT31;67819;51.972;5.678;2023-12-20T06:40:21;9.1;73.6
78522;SHT31;67819;51.972;5.678;2023-12-20T06:42:50;9.1;73.6
78522;SHT31;67819;51.972;5.678;2023-12-20T06:45:18;9.1;73.3
78522;SHT31;67819;51.972;5.678;2023-12-20T06:47:47;9.2;73.1
78522;SHT31;67819;51.972;5.678;2023-12-20T06:50:16;9.2;73.2
78522;SHT31;67819;51.972;5.678;2023-12-20T06:52:44;9.1;73.0
78522;SHT31;67819;51.972;5.678;2023-12-20T06:55:13;9.1;73.4
78522;SHT31;67819;51.972;5.678;2023-12-20T06:57:42;9.1;73.4
78522;SHT31;67819;51.972;5.678;2023-12-20T07:00:11;9.1;73.4
78522;SHT31;67819;51.972;5.678;2023-12-20T07:02:40;9.1;73.3
78522;SHT31;67819;51.972;5.678;2023-12-20T07:05:11;9.1;73.6
78522;SHT31;67819;51.972;5.678;2023-12-20T07:07:39;9.1;73.4
78522;SHT31;67819;51.972;5.678;2023-12-20T07:10:09;9.1;73.4
78522;SHT31;67819;51.972;5.678;2023-12-20T07:12:37;9.2;73.6
78522;SHT31;67819;51.972;5.678;2023-12-20T07:15:06;9.2;73.8
78522;SHT31;67819;51.972;5.678;2023-12-20T07:17:35;9.2;73.7
78522;SHT31;67819;51.972;5.678;2023-12-20T07:20:04;9.2;73.4
78522;SHT31;67819;51.972;5.678;2023-12-20T07:22:38;9.2;73.3
78522;SHT31;67819;51.972;5.678;2023-12-20T07:25:08;9.2;73.5
78522;SHT31;67819;51.972;5.678;2023-12-20T07:27:39;9.2;73.7
78522;SHT31;67819;51.972;5.678;2023-12-20T07:30:10;9.2;73.5
78522;SHT31;67819;51.972;5.678;2023-12-20T07:32:39;9.2;73.7
78522;SHT31;67819;51.972;5.678;2023-12-20T07:35:08;9.2;73.6
78522;SHT31;67819;51.972;5.678;2023-12-20T07:37:37;9.2;73.9
78522;SHT31;67819;51.972;5.678;2023-12-20T07:40:07;9.2;74.0
78522;SHT31;67819;51.972;5.678;2023-12-20T07:42:36;9.2;73.9
78522;SHT31;67819;51.972;5.678;2023-12-20T07:45:05;9.2;73.8
78522;SHT31;67819;51.972;5.678;2023-12-20T07:47:34;9.2;73.9
78522;SHT31;67819;51.972;5.678;2023-12-20T07:50:03;9.2;73.8
78522;SHT31;67819;51.972;5.678;2023-12-20T07:52:32;9.2;73.9
78522;SHT31;67819;51.972;5.678;2023-12-20T07:55:01;9.3;74.1
78522;SHT31;67819;51.972;5.678;2023-12-20T07:57:31;9.3;73.9
78522;SHT31;67819;51.972;5.678;2023-12-20T08:00:01;9.3;73.6
78522;SHT31;67819;51.972;5.678;2023-12-20T08:02:30;9.3;73.5
78522;SHT31;67819;51.972;5.678;2023-12-20T08:04:59;9.3;73.4
78522;SHT31;67819;51.972;5.678;2023-12-20T08:07:27;9.3;73.6
78522;SHT31;67819;51.972;5.678;2023-12-20T08:09:57;9.3;73.3
78522;SHT31;67819;51.972;5.678;2023-12-20T08:12:25;9.3;73.8
78522;SHT31;67819;51.972;5.678;2023-12-20T08:14:54;9.3;73.5
78522;SHT31;67819;51.972;5.678;2023-12-20T08:17:23;9.3;73.7
78522;SHT31;67819;51.972;5.678;2023-12-20T08:19:52;9.3;73.5
78522;SHT31;67819;51.972;5.678;2023-12-20T08:22:20;9.4;73.6
78522;SHT31;67819;51.972;5.678;2023-12-20T08:24:49;9.4;73.4
78522;SHT31;67819;51.972;5.678;2023-12-20T08:27:18;9.4;73.6
78522;SHT31;67819;51.972;5.678;2023-12-20T08:29:46;9.4;73.6
78522;SHT31;67819;51.972;5.678;2023-12-20T08:32:16;9.4;73.3
78522;SHT31;67819;51.972;5.678;2023-12-20T08:34:45;9.5;73.4
78522;SHT31;67819;51.972;5.678;2023-12-20T08:37:13;9.5;73.3
78522;SHT31;67819;51.972;5.678;2023-12-20T08:39:42;9.5;72.8
78522;SHT31;67819;51.972;5.678;2023-12-20T08:42:11;9.6;72.7
78522;SHT31;67819;51.972;5.678;2023-12-20T08:44:39;9.6;73.0
78522;SHT31;67819;51.972;5.678;2023-12-20T08:47:08;9.6;73.1
78522;SHT31;67819;51.972;5.678;2023-12-20T08:49:42;9.6;72.9
78522;SHT31;67819;51.972;5.678;2023-12-20T08:52:10;9.6;72.6
78522;SHT31;67819;51.972;5.678;2023-12-20T08:54:39;9.6;73.0
78522;SHT31;67819;51.972;5.678;2023-12-20T08:57:07;9.6;73.1
78522;SHT31;67819;51.972;5.678;2023-12-20T08:59:38;9.6;72.8
78522;SHT31;67819;51.972;5.678;2023-12-20T09:02:08;9.6;73.4
78522;SHT31;67819;51.972;5.678;2023-12-20T09:04:37;9.6;73.6
78522;SHT31;67819;51.972;5.678;2023-12-20T09:07:06;9.6;73.7
78522;SHT31;67819;51.972;5.678;2023-12-20T09:09:35;9.6;74.3
78522;SHT31;67819;51.972;5.678;2023-12-20T09:12:04;9.5;74.9
78522;SHT31;67819;51.972;5.678;2023-12-20T09:14:32;9.5;75.5
78522;SHT31;67819;51.972;5.678;2023-12-20T09:17:01;9.5;75.6
78522;SHT31;67819;51.972;5.678;2023-12-20T09:19:30;9.4;75.9
78522;SHT31;67819;51.972;5.678;2023-12-20T09:21:58;9.4;76.1
78522;SHT31;67819;51.972;5.678;2023-12-20T09:24:27;9.4;76.3
78522;SHT31;67819;51.972;5.678;2023-12-20T09:26:56;9.3;77.1
78522;SHT31;67819;51.972;5.678;2023-12-20T09:29:24;9.3;77.2
78522;SHT31;67819;51.972;5.678;2023-12-20T09:31:53;9.3;77.2
78522;SHT31;67819;51.972;5.678;2023-12-20T09:34:22;9.3;77.2
78522;SHT31;67819;51.972;5.678;2023-12-20T09:36:50;9.2;77.6
78522;SHT31;67819;51.972;5.678;2023-12-20T09:39:20;9.2;77.4
78522;SHT31;67819;51.972;5.678;2023-12-20T09:42:00;9.1;78.2
78522;SHT31;67819;51.972;5.678;2023-12-20T09:44:29;9.1;78.7
78522;SHT31;67819;51.972;5.678;2023-12-20T09:47:02;9.1;78.6
78522;SHT31;67819;51.972;5.678;2023-12-20T09:49:33;9.0;78.6
78522;SHT31;67819;51.972;5.678;2023-12-20T09:52:03;9.0;78.7
78522;SHT31;67819;51.972;5.678;2023-12-20T09:54:33;9.0;78.7
78522;SHT31;67819;51.972;5.678;2023-12-20T09:57:02;9.0;78.8
78522;SHT31;67819;51.972;5.678;2023-12-20T09:59:30;9.0;78.4
78522;SHT31;67819;51.972;5.678;2023-12-20T10:02:01;9.0;78.7
78522;SHT31;67819;51.972;5.678;2023-12-20T10:04:32;9.1;78.3
78522;SHT31;67819;51.972;5.678;2023-12-20T10:07:06;9.1;78.2
78522;SHT31;67819;51.972;5.678;2023-12-20T10:09:34;9.1;78.2
78522;SHT31;67819;51.972;5.678;2023-12-20T10:12:03;9.1;77.8
78522;SHT31;67819;51.972;5.678;2023-12-20T10:14:33;9.1;77.8
78522;SHT31;67819;51.972;5.678;2023-12-20T10:17:05;9.1;78.1
78522;SHT31;67819;51.972;5.678;2023-12-20T10:19:34;9.2;77.8
78522;SHT31;67819;51.972;5.678;2023-12-20T10:22:04;9.2;77.8
78522;SHT31;67819;51.972;5.678;2023-12-20T10:24:33;9.3;77.6
78522;SHT31;67819;51.972;5.678;2023-12-20T10:27:06;9.3;77.6
78522;SHT31;67819;51.972;5.678;2023-12-20T10:29:36;9.3;77.8
78522;SHT31;67819;51.972;5.678;2023-12-20T10:32:24;9.4;77.9
78522;SHT31;67819;51.972;5.678;2023-12-20T10:34:55;9.4;77.6
78522;SHT31;67819;51.972;5.678;2023-12-20T10:37:23;9.5;77.3
78522;SHT31;67819;51.972;5.678;2023-12-20T10:39:53;9.5;77.2
78522;SHT31;67819;51.972;5.678;2023-12-20T10:42:26;9.6;76.8
78522;SHT31;67819;51.972;5.678;2023-12-20T10:44:55;9.6;77.0
78522;SHT31;67819;51.972;5.678;2023-12-20T10:47:25;9.7;76.8
78522;SHT31;67819;51.972;5.678;2023-12-20T10:49:54;9.7;76.6
78522;SHT31;67819;51.972;5.678;2023-12-20T10:52:25;9.7;76.7
78522;SHT31;67819;51.972;5.678;2023-12-20T10:54:54;9.8;76.3
78522;SHT31;67819;51.972;5.678;2023-12-20T10:57:27;9.8;76.0
78522;SHT31;67819;51.972;5.678;2023-12-20T11:00:01;9.8;76.2
78522;SHT31;67819;51.972;5.678;2023-12-20T11:02:32;9.9;75.9
78522;SHT31;67819;51.972;5.678;2023-12-20T11:05:10;9.9;75.6
78522;SHT31;67819;51.972;5.678;2023-12-20T11:07:48;10.0;75.0
78522;SHT31;67819;51.972;5.678;2023-12-20T11:10:22;10.1;75.1
78522;SHT31;67819;51.972;5.678;2023-12-20T11:12:54;10.1;74.4
78522;SHT31;67819;51.972;5.678;2023-12-20T11:15:25;10.1;74.1
78522;SHT31;67819;51.972;5.678;2023-12-20T11:17:58;10.2;74.0
78522;SHT31;67819;51.972;5.678;2023-12-20T11:20:35;10.2;73.6
78522;SHT31;67819;51.972;5.678;2023-12-20T11:23:06;10.3;74.0
78522;SHT31;67819;51.972;5.678;2023-12-20T11:25:47;10.3;73.0
78522;SHT31;67819;51.972;5.678;2023-12-20T11:28:21;10.3;73.3
78522;SHT31;67819;51.972;5.678;2023-12-20T11:30:52;10.4;73.2
78522;SHT31;67819;51.972;5.678;2023-12-20T11:33:26;10.4;73.2
78522;SHT31;67819;51.972;5.678;2023-12-20T11:35:58;10.4;72.3
78522;SHT31;67819;51.972;5.678;2023-12-20T11:38:37;10.5;71.6
78522;SHT31;67819;51.972;5.678;2023-12-20T11:41:07;10.5;72.0
78522;SHT31;67819;51.972;5.678;2023-12-20T11:43:38;10.5;71.9
78522;SHT31;67819;51.972;5.678;2023-12-20T11:46:09;10.6;71.6
78522;SHT31;67819;51.972;5.678;2023-12-20T11:48:39;10.6;71.4
78522;SHT31;67819;51.972;5.678;2023-12-20T11:51:13;10.6;71.2
78522;SHT31;67819;51.972;5.678;2023-12-20T11:53:42;10.6;70.9
78522;SHT31;67819;51.972;5.678;2023-12-20T11:56:11;10.7;70.2
78522;SHT31;67819;51.972;5.678;2023-12-20T11:58:40;10.7;70.2
78522;SHT31;67819;51.972;5.678;2023-12-20T12:01:09;10.7;70.3
78522;SHT31;67819;51.972;5.678;2023-12-20T12:03:38;10.8;69.8
78522;SHT31;67819;51.972;5.678;2023-12-20T12:06:09;10.8;69.5
78522;SHT31;67819;51.972;5.678;2023-12-20T12:08:39;10.8;70.0
78522;SHT31;67819;51.972;5.678;2023-12-20T12:11:09;10.8;69.7
78522;SHT31;67819;51.972;5.678;2023-12-20T12:13:37;10.8;70.1
78522;SHT31;67819;51.972;5.678;2023-12-20T12:16:06;10.9;70.6
78522;SHT31;67819;51.972;5.678;2023-12-20T12:18:36;10.9;70.5
78522;SHT31;67819;51.972;5.678;2023-12-20T12:21:04;10.9;70.8
78522;SHT31;67819;51.972;5.678;2023-12-20T12:23:33;10.9;70.9
78522;SHT31;67819;51.972;5.678;2023-12-20T12:26:03;10.9;70.7
78522;SHT31;67819;51.972;5.678;2023-12-20T12:28:34;11.0;71.0
78522;SHT31;67819;51.972;5.678;2023-12-20T12:31:05;11.0;70.7
78522;SHT31;67819;51.972;5.678;2023-12-20T12:33:34;11.0;70.3
78522;SHT31;67819;51.972;5.678;2023-12-20T12:36:06;11.0;70.3
78522;SHT31;67819;51.972;5.678;2023-12-20T12:38:35;11.0;70.6
78522;SHT31;67819;51.972;5.678;2023-12-20T12:41:04;11.0;71.5
78522;SHT31;67819;51.972;5.678;2023-12-20T12:43:33;11.0;71.5
78522;SHT31;67819;51.972;5.678;2023-12-20T12:46:02;10.9;71.4
78522;SHT31;67819;51.972;5.678;2023-12-20T12:48:31;10.9;71.4
78522;SHT31;67819;51.972;5.678;2023-12-20T12:51:00;10.9;71.5
78522;SHT31;67819;51.972;5.678;2023-12-20T12:53:29;10.8;72.0
78522;SHT31;67819;51.972;5.678;2023-12-20T12:55:57;10.8;72.2
78522;SHT31;67819;51.972;5.678;2023-12-20T12:58:28;10.8;71.9
78522;SHT31;67819;51.972;5.678;2023-12-20T13:00:57;10.8;72.3
78522;SHT31;67819;51.972;5.678;2023-12-20T13:03:26;10.8;71.7
78522;SHT31;67819;51.972;5.678;2023-12-20T13:05:54;10.8;71.8
78522;SHT31;67819;51.972;5.678;2023-12-20T13:08:23;10.8;71.9
78522;SHT31;67819;51.972;5.678;2023-12-20T13:10:52;10.8;71.8
78522;SHT31;67819;51.972;5.678;2023-12-20T13:13:24;10.8;72.1
78522;SHT31;67819;51.972;5.678;2023-12-20T13:15:52;10.8;72.2
78522;SHT31;67819;51.972;5.678;2023-12-20T13:18:22;10.8;71.9
78522;SHT31;67819;51.972;5.678;2023-12-20T13:20:52;10.8;71.6
78522;SHT31;67819;51.972;5.678;2023-12-20T13:23:23;10.9;71.7
78522;SHT31;67819;51.972;5.678;2023-12-20T13:25:51;10.9;71.3
78522;SHT31;67819;51.972;5.678;2023-12-20T13:28:20;10.9;71.2
78522;SHT31;67819;51.972;5.678;2023-12-20T13:30:49;10.9;70.9
78522;SHT31;67819;51.972;5.678;2023-12-20T13:33:17;10.9;70.8
78522;SHT31;67819;51.972;5.678;2023-12-20T13:35:46;10.9;70.8
78522;SHT31;67819;51.972;5.678;2023-12-20T13:38:15;10.9;70.4
78522;SHT31;67819;51.972;5.678;2023-12-20T13:40:43;10.9;70.5
78522;SHT31;67819;51.972;5.678;2023-12-20T13:43:14;10.9;70.5
78522;SHT31;67819;51.972;5.678;2023-12-20T13:45:47;10.9;70.8
78522;SHT31;67819;51.972;5.678;2023-12-20T13:48:16;10.9;70.7
78522;SHT31;67819;51.972;5.678;2023-12-20T13:50:45;10.9;70.4
78522;SHT31;67819;51.972;5.678;2023-12-20T13:53:15;10.9;70.9
78522;SHT31;67819;51.972;5.678;2023-12-20T13:55:45;10.9;70.7
78522;SHT31;67819;51.972;5.678;2023-12-20T13:58:16;10.9;70.9
78522;SHT31;67819;51.972;5.678;2023-12-20T14:00:46;10.9;70.8
78522;SHT31;67819;51.972;5.678;2023-12-20T14:03:15;10.8;70.6
78522;SHT31;67819;51.972;5.678;2023-12-20T14:05:43;10.8;70.7
78522;SHT31;67819;51.972;5.678;2023-12-20T14:08:12;10.8;70.6
78522;SHT31;67819;51.972;5.678;2023-12-20T14:10:41;10.9;70.5
78522;SHT31;67819;51.972;5.678;2023-12-20T14:13:09;10.9;70.4
78522;SHT31;67819;51.972;5.678;2023-12-20T14:15:38;10.9;70.6
78522;SHT31;67819;51.972;5.678;2023-12-20T14:18:07;10.9;70.5
78522;SHT31;67819;51.972;5.678;2023-12-20T14:20:36;10.9;70.9
78522;SHT31;67819;51.972;5.678;2023-12-20T14:23:08;10.9;70.6
78522;SHT31;67819;51.972;5.678;2023-12-20T14:25:36;10.9;70.5
78522;SHT31;67819;51.972;5.678;2023-12-20T14:28:05;10.9;70.7
78522;SHT31;67819;51.972;5.678;2023-12-20T14:30:34;10.9;70.7
78522;SHT31;67819;51.972;5.678;2023-12-20T14:33:04;11.0;70.3
78522;SHT31;67819;51.972;5.678;2023-12-20T14:35:33;11.0;70.4
78522;SHT31;67819;51.972;5.678;2023-12-20T14:38:02;11.0;70.7
78522;SHT31;67819;51.972;5.678;2023-12-20T14:40:30;11.0;70.7
78522;SHT31;67819;51.972;5.678;2023-12-20T14:42:59;11.0;70.5
78522;SHT31;67819;51.972;5.678;2023-12-20T14:45:30;11.0;70.6
78522;SHT31;67819;51.972;5.678;2023-12-20T14:48:01;11.0;70.4
78522;SHT31;67819;51.972;5.678;2023-12-20T14:50:29;11.0;70.4
78522;SHT31;67819;51.972;5.678;2023-12-20T14:53:00;11.0;70.6
78522;SHT31;67819;51.972;5.678;2023-12-20T14:55:29;11.0;70.8
78522;SHT31;67819;51.972;5.678;2023-12-20T14:57:57;11.0;70.5
78522;SHT31;67819;51.972;5.678;2023-12-20T15:00:26;11.0;70.5
78522;SHT31;67819;51.972;5.678;2023-12-20T15:02:56;11.0;70.9
78522;SHT31;67819;51.972;5.678;2023-12-20T15:05:25;10.9;70.7
78522;SHT31;67819;51.972;5.678;2023-12-20T15:07:54;10.9;70.6
78522;SHT31;67819;51.972;5.678;2023-12-20T15:10:22;10.9;70.6
78522;SHT31;67819;51.972;5.678;2023-12-20T15:12:51;10.9;71.0
78522;SHT31;67819;51.972;5.678;2023-12-20T15:15:23;10.9;71.7
78522;SHT31;67819;51.972;5.678;2023-12-20T15:17:53;10.9;71.7
78522;SHT31;67819;51.972;5.678;2023-12-20T15:20:22;10.9;71.7
78522;SHT31;67819;51.972;5.678;2023-12-20T15:22:50;10.9;71.6
78522;SHT31;67819;51.972;5.678;2023-12-20T15:25:20;10.9;71.6
78522;SHT31;67819;51.972;5.678;2023-12-20T15:27:48;10.9;71.5
78522;SHT31;67819;51.972;5.678;2023-12-20T15:30:19;10.9;71.5
78522;SHT31;67819;51.972;5.678;2023-12-20T15:32:50;10.9;71.7
78522;SHT31;67819;51.972;5.678;2023-12-20T15:35:18;10.9;72.0
78522;SHT31;67819;51.972;5.678;2023-12-20T15:37:49;10.9;72.3
78522;SHT31;67819;51.972;5.678;2023-12-20T15:40:20;10.9;72.4
78522;SHT31;67819;51.972;5.678;2023-12-20T15:42:49;10.9;72.8
78522;SHT31;67819;51.972;5.678;2023-12-20T15:45:17;10.9;73.0
78522;SHT31;67819;51.972;5.678;2023-12-20T15:47:46;10.8;73.4
78522;SHT31;67819;51.972;5.678;2023-12-20T15:50:15;10.8;73.8
78522;SHT31;67819;51.972;5.678;2023-12-20T15:52:43;10.8;74.1
78522;SHT31;67819;51.972;5.678;2023-12-20T15:55:12;10.7;74.5
78522;SHT31;67819;51.972;5.678;2023-12-20T15:57:41;10.7;74.8
78522;SHT31;67819;51.972;5.678;2023-12-20T16:00:10;10.7;74.9
78522;SHT31;67819;51.972;5.678;2023-12-20T16:02:39;10.7;74.9
78522;SHT31;67819;51.972;5.678;2023-12-20T16:05:08;10.6;75.1
78522;SHT31;67819;51.972;5.678;2023-12-20T16:07:37;10.6;75.6
78522;SHT31;67819;51.972;5.678;2023-12-20T16:10:06;10.5;76.1
78522;SHT31;67819;51.972;5.678;2023-12-20T16:12:34;10.5;76.1
78522;SHT31;67819;51.972;5.678;2023-12-20T16:15:03;10.5;76.3
78522;SHT31;67819;51.972;5.678;2023-12-20T16:17:32;10.4;76.9
78522;SHT31;67819;51.972;5.678;2023-12-20T16:20:02;10.4;77.1
78522;SHT31;67819;51.972;5.678;2023-12-20T16:22:32;10.4;77.3
78522;SHT31;67819;51.972;5.678;2023-12-20T16:25:00;10.3;77.4